sensor_id;sensor_type;location;lat;lon;timestamp;P1;durP1;ratioP1;P2;durP2;ratioP2
1416;SDS011;703;51.162;13.574;2022-11-30T00:00:29;66.13;;;29.30;;
1416;SDS011;703;51.162;13.574;2022-11-30T00:02:56;64.00;;;29.10;;
1416;SDS011;703;51.162;13.574;2022-11-30T00:05:22;64.03;;;28.27;;
1416;SDS011;703;51.162;13.574;2022-11-30T00:07:48;62.67;;;28.37;;
1416;SDS011;703;51.162;13.574;2022-11-30T00:10:14;63.87;;;26.10;;
1416;SDS011;703;51.162;13.574;2022-11-30T00:12:40;62.17;;;27.17;;
1416;SDS011;703;51.162;13.574;2022-11-30T00:15:07;64.60;;;27.90;;
1416;SDS011;703;51.162;13.574;2022-11-30T00:17:36;65.93;;;28.77;;
1416;SDS011;703;51.162;13.574;2022-11-30T00:20:02;64.77;;;29.30;;
1416;SDS011;703;51.162;13.574;2022-11-30T00:22:27;66.37;;;28.80;;
1416;SDS011;703;51.162;13.574;2022-11-30T00:24:53;62.83;;;26.83;;
1416;SDS011;703;51.162;13.574;2022-11-30T00:27:19;68.17;;;30.07;;
1416;SDS011;703;51.162;13.574;2022-11-30T00:29:44;64.60;;;30.10;;
1416;SDS011;703;51.162;13.574;2022-11-30T00:32:10;64.87;;;28.97;;
1416;SDS011;703;51.162;13.574;2022-11-30T00:34:36;64.90;;;28.73;;
1416;SDS011;703;51.162;13.574;2022-11-30T00:37:01;69.20;;;28.13;;
1416;SDS011;703;51.162;13.574;2022-11-30T00:39:27;63.67;;;27.53;;
1416;SDS011;703;51.162;13.574;2022-11-30T00:41:52;67.23;;;30.17;;
1416;SDS011;703;51.162;13.574;2022-11-30T00:44:18;65.43;;;29.70;;
1416;SDS011;703;51.162;13.574;2022-11-30T00:46:43;62.33;;;26.70;;
1416;SDS011;703;51.162;13.574;2022-11-30T00:49:09;66.47;;;28.37;;
1416;SDS011;703;51.162;13.574;2022-11-30T00:51:35;68.30;;;30.97;;
1416;SDS011;703;51.162;13.574;2022-11-30T00:54:02;70.47;;;30.23;;
1416;SDS011;703;51.162;13.574;2022-11-30T00:56:28;67.77;;;30.00;;
1416;SDS011;703;51.162;13.574;2022-11-30T00:58:54;63.53;;;28.50;;
1416;SDS011;703;51.162;13.574;2022-11-30T01:01:19;67.93;;;29.83;;
1416;SDS011;703;51.162;13.574;2022-11-30T01:03:45;66.00;;;30.67;;
1416;SDS011;703;51.162;13.574;2022-11-30T01:06:15;66.63;;;28.83;;
1416;SDS011;703;51.162;13.574;2022-11-30T01:08:40;67.10;;;28.10;;
1416;SDS011;703;51.162;13.574;2022-11-30T01:11:07;64.80;;;27.60;;
1416;SDS011;703;51.162;13.574;2022-11-30T01:13:39;66.40;;;27.70;;
1416;SDS011;703;51.162;13.574;2022-11-30T01:16:09;69.90;;;31.30;;
1416;SDS011;703;51.162;13.574;2022-11-30T01:18:36;64.80;;;27.27;;
1416;SDS011;703;51.162;13.574;2022-11-30T01:21:06;66.47;;;28.27;;
1416;SDS011;703;51.162;13.574;2022-11-30T01:23:37;66.87;;;28.50;;
1416;SDS011;703;51.162;13.574;2022-11-30T01:26:03;66.73;;;29.23;;
1416;SDS011;703;51.162;13.574;2022-11-30T01:28:30;66.30;;;31.57;;
1416;SDS011;703;51.162;13.574;2022-11-30T01:30:58;63.27;;;27.80;;
1416;SDS011;703;51.162;13.574;2022-11-30T01:33:25;64.17;;;28.27;;
1416;SDS011;703;51.162;13.574;2022-11-30T01:35:58;64.90;;;28.70;;
1416;SDS011;703;51.162;13.574;2022-11-30T01:38:23;66.13;;;29.13;;
1416;SDS011;703;51.162;13.574;2022-11-30T01:40:49;64.50;;;27.27;;
1416;SDS011;703;51.162;13.574;2022-11-30T01:43:18;63.73;;;26.93;;
1416;SDS011;703;51.162;13.574;2022-11-30T01:45:44;64.90;;;28.60;;
1416;SDS011;703;51.162;13.574;2022-11-30T01:48:13;63.03;;;26.60;;
1416;SDS011;703;51.162;13.574;2022-11-30T01:50:39;62.80;;;26.40;;
1416;SDS011;703;51.162;13.574;2022-11-30T01:53:05;62.93;;;28.10;;
1416;SDS011;703;51.162;13.574;2022-11-30T01:55:35;69.10;;;29.23;;
1416;SDS011;703;51.162;13.574;2022-11-30T01:58:05;62.20;;;27.30;;
1416;SDS011;703;51.162;13.574;2022-11-30T02:00:32;64.97;;;27.10;;
1416;SDS011;703;51.162;13.574;2022-11-30T02:05:37;62.23;;;26.80;;
1416;SDS011;703;51.162;13.574;2022-11-30T02:08:05;62.23;;;28.50;;
1416;SDS011;703;51.162;13.574;2022-11-30T02:10:33;61.77;;;27.10;;
1416;SDS011;703;51.162;13.574;2022-11-30T02:24:38;61.00;;;26.63;;
1416;SDS011;703;51.162;13.574;2022-11-30T02:35:32;59.80;;;25.77;;
1416;SDS011;703;51.162;13.574;2022-11-30T02:38:00;60.90;;;25.90;;
1416;SDS011;703;51.162;13.574;2022-11-30T02:40:28;63.77;;;27.50;;
1416;SDS011;703;51.162;13.574;2022-11-30T02:42:55;61.70;;;25.57;;
1416;SDS011;703;51.162;13.574;2022-11-30T02:45:30;60.33;;;26.07;;
1416;SDS011;703;51.162;13.574;2022-11-30T02:48:08;60.90;;;25.90;;
1416;SDS011;703;51.162;13.574;2022-11-30T02:50:40;61.53;;;26.80;;
1416;SDS011;703;51.162;13.574;2022-11-30T02:53:09;63.50;;;26.10;;
1416;SDS011;703;51.162;13.574;2022-11-30T02:55:35;59.10;;;24.87;;
1416;SDS011;703;51.162;13.574;2022-11-30T02:58:01;60.57;;;25.90;;
1416;SDS011;703;51.162;13.574;2022-11-30T03:00:27;63.73;;;27.53;;
1416;SDS011;703;51.162;13.574;2022-11-30T03:02:54;66.73;;;27.43;;
1416;SDS011;703;51.162;13.574;2022-11-30T03:05:19;61.77;;;25.90;;
1416;SDS011;703;51.162;13.574;2022-11-30T03:07:45;62.97;;;27.13;;
1416;SDS011;703;51.162;13.574;2022-11-30T03:10:11;63.60;;;27.20;;
1416;SDS011;703;51.162;13.574;2022-11-30T03:12:36;59.97;;;26.90;;
1416;SDS011;703;51.162;13.574;2022-11-30T03:15:02;61.90;;;26.47;;
1416;SDS011;703;51.162;13.574;2022-11-30T03:17:29;60.37;;;24.40;;
1416;SDS011;703;51.162;13.574;2022-11-30T03:19:54;61.03;;;25.90;;
1416;SDS011;703;51.162;13.574;2022-11-30T03:22:23;60.80;;;26.20;;
1416;SDS011;703;51.162;13.574;2022-11-30T03:24:49;62.73;;;26.23;;
1416;SDS011;703;51.162;13.574;2022-11-30T03:27:14;62.70;;;27.87;;
1416;SDS011;703;51.162;13.574;2022-11-30T03:29:40;61.97;;;23.57;;
1416;SDS011;703;51.162;13.574;2022-11-30T03:32:06;62.47;;;27.40;;
1416;SDS011;703;51.162;13.574;2022-11-30T03:34:32;63.07;;;27.10;;
1416;SDS011;703;51.162;13.574;2022-11-30T03:36:57;61.43;;;25.50;;
1416;SDS011;703;51.162;13.574;2022-11-30T03:39:23;61.57;;;27.10;;
1416;SDS011;703;51.162;13.574;2022-11-30T03:41:49;58.50;;;24.70;;
1416;SDS011;703;51.162;13.574;2022-11-30T03:44:15;62.63;;;26.50;;
1416;SDS011;703;51.162;13.574;2022-11-30T03:46:41;62.50;;;24.47;;
1416;SDS011;703;51.162;13.574;2022-11-30T03:49:07;60.80;;;24.23;;
1416;SDS011;703;51.162;13.574;2022-11-30T03:51:32;64.20;;;27.57;;
1416;SDS011;703;51.162;13.574;2022-11-30T03:53:58;60.80;;;25.00;;
1416;SDS011;703;51.162;13.574;2022-11-30T03:56:24;63.17;;;25.50;;
1416;SDS011;703;51.162;13.574;2022-11-30T03:58:50;66.43;;;26.20;;
1416;SDS011;703;51.162;13.574;2022-11-30T04:01:16;58.97;;;23.90;;
1416;SDS011;703;51.162;13.574;2022-11-30T04:03:46;60.60;;;26.03;;
1416;SDS011;703;51.162;13.574;2022-11-30T04:06:12;57.60;;;24.33;;
1416;SDS011;703;51.162;13.574;2022-11-30T04:08:38;61.20;;;26.60;;
1416;SDS011;703;51.162;13.574;2022-11-30T04:11:05;63.10;;;26.90;;
1416;SDS011;703;51.162;13.574;2022-11-30T04:13:31;63.23;;;27.03;;
1416;SDS011;703;51.162;13.574;2022-11-30T04:15:58;64.00;;;27.93;;
1416;SDS011;703;51.162;13.574;2022-11-30T04:18:24;59.97;;;25.87;;
1416;SDS011;703;51.162;13.574;2022-11-30T04:20:52;62.37;;;26.77;;
1416;SDS011;703;51.162;13.574;2022-11-30T04:23:19;60.80;;;26.50;;
1416;SDS011;703;51.162;13.574;2022-11-30T04:25:44;62.30;;;26.03;;
1416;SDS011;703;51.162;13.574;2022-11-30T04:28:11;61.13;;;27.87;;
1416;SDS011;703;51.162;13.574;2022-11-30T04:30:38;62.23;;;27.60;;
1416;SDS011;703;51.162;13.574;2022-11-30T04:33:04;63.33;;;28.67;;
1416;SDS011;703;51.162;13.574;2022-11-30T04:35:30;60.00;;;26.77;;
1416;SDS011;703;51.162;13.574;2022-11-30T04:37:56;61.00;;;26.10;;
1416;SDS011;703;51.162;13.574;2022-11-30T04:40:22;66.00;;;26.50;;
1416;SDS011;703;51.162;13.574;2022-11-30T04:42:48;66.00;;;28.17;;
1416;SDS011;703;51.162;13.574;2022-11-30T04:45:14;66.80;;;27.30;;
1416;SDS011;703;51.162;13.574;2022-11-30T04:47:40;57.90;;;24.63;;
1416;SDS011;703;51.162;13.574;2022-11-30T04:50:06;64.13;;;27.90;;
1416;SDS011;703;51.162;13.574;2022-11-30T04:52:33;61.60;;;27.03;;
1416;SDS011;703;51.162;13.574;2022-11-30T04:54:59;65.50;;;32.17;;
1416;SDS011;703;51.162;13.574;2022-11-30T04:57:25;65.70;;;31.73;;
1416;SDS011;703;51.162;13.574;2022-11-30T04:59:51;73.07;;;34.10;;
1416;SDS011;703;51.162;13.574;2022-11-30T05:02:17;68.30;;;31.07;;
1416;SDS011;703;51.162;13.574;2022-11-30T05:04:43;64.67;;;28.83;;
1416;SDS011;703;51.162;13.574;2022-11-30T05:07:08;69.43;;;30.93;;
1416;SDS011;703;51.162;13.574;2022-11-30T05:09:34;63.63;;;28.10;;
1416;SDS011;703;51.162;13.574;2022-11-30T05:12:00;63.17;;;29.17;;
1416;SDS011;703;51.162;13.574;2022-11-30T05:14:26;64.90;;;27.13;;
1416;SDS011;703;51.162;13.574;2022-11-30T05:16:51;68.77;;;30.97;;
1416;SDS011;703;51.162;13.574;2022-11-30T05:19:17;64.23;;;28.37;;
1416;SDS011;703;51.162;13.574;2022-11-30T05:21:43;63.47;;;29.30;;
1416;SDS011;703;51.162;13.574;2022-11-30T05:24:09;70.00;;;33.10;;
1416;SDS011;703;51.162;13.574;2022-11-30T05:26:35;64.03;;;29.37;;
1416;SDS011;703;51.162;13.574;2022-11-30T05:29:02;64.97;;;29.73;;
1416;SDS011;703;51.162;13.574;2022-11-30T05:31:28;64.70;;;29.50;;
1416;SDS011;703;51.162;13.574;2022-11-30T05:33:54;65.07;;;29.87;;
1416;SDS011;703;51.162;13.574;2022-11-30T05:36:20;66.30;;;28.77;;
1416;SDS011;703;51.162;13.574;2022-11-30T05:38:46;65.27;;;30.50;;
1416;SDS011;703;51.162;13.574;2022-11-30T05:41:12;65.40;;;28.70;;
1416;SDS011;703;51.162;13.574;2022-11-30T05:43:38;65.83;;;29.30;;
1416;SDS011;703;51.162;13.574;2022-11-30T05:46:04;68.17;;;31.70;;
1416;SDS011;703;51.162;13.574;2022-11-30T05:48:31;68.73;;;31.63;;
1416;SDS011;703;51.162;13.574;2022-11-30T05:51:07;67.07;;;31.43;;
1416;SDS011;703;51.162;13.574;2022-11-30T05:53:39;69.27;;;29.67;;
1416;SDS011;703;51.162;13.574;2022-11-30T05:56:06;68.53;;;31.87;;
1416;SDS011;703;51.162;13.574;2022-11-30T05:58:34;73.60;;;30.43;;
1416;SDS011;703;51.162;13.574;2022-11-30T06:00:59;69.43;;;30.63;;
1416;SDS011;703;51.162;13.574;2022-11-30T06:03:28;65.37;;;27.17;;
1416;SDS011;703;51.162;13.574;2022-11-30T06:05:55;67.63;;;29.33;;
1416;SDS011;703;51.162;13.574;2022-11-30T06:08:21;67.57;;;29.50;;
1416;SDS011;703;51.162;13.574;2022-11-30T06:10:47;72.93;;;32.37;;
1416;SDS011;703;51.162;13.574;2022-11-30T06:13:12;68.77;;;31.90;;
1416;SDS011;703;51.162;13.574;2022-11-30T06:15:38;71.53;;;33.53;;
1416;SDS011;703;51.162;13.574;2022-11-30T06:18:05;68.40;;;32.07;;
1416;SDS011;703;51.162;13.574;2022-11-30T06:20:31;66.60;;;31.07;;
1416;SDS011;703;51.162;13.574;2022-11-30T06:22:57;68.17;;;32.13;;
1416;SDS011;703;51.162;13.574;2022-11-30T06:25:23;69.10;;;32.13;;
1416;SDS011;703;51.162;13.574;2022-11-30T06:27:49;70.87;;;33.50;;
1416;SDS011;703;51.162;13.574;2022-11-30T06:30:15;65.97;;;29.07;;
1416;SDS011;703;51.162;13.574;2022-11-30T06:32:49;64.63;;;29.60;;
1416;SDS011;703;51.162;13.574;2022-11-30T06:35:16;64.17;;;27.83;;
1416;SDS011;703;51.162;13.574;2022-11-30T06:37:42;67.93;;;30.17;;
1416;SDS011;703;51.162;13.574;2022-11-30T06:40:09;65.67;;;30.63;;
1416;SDS011;703;51.162;13.574;2022-11-30T06:42:36;67.97;;;30.83;;
1416;SDS011;703;51.162;13.574;2022-11-30T06:45:02;67.80;;;31.70;;
1416;SDS011;703;51.162;13.574;2022-11-30T06:47:28;65.37;;;28.87;;
1416;SDS011;703;51.162;13.574;2022-11-30T06:49:54;63.60;;;27.43;;
1416;SDS011;703;51.162;13.574;2022-11-30T06:52:20;66.73;;;28.50;;
1416;SDS011;703;51.162;13.574;2022-11-30T06:54:46;69.47;;;31.53;;
1416;SDS011;703;51.162;13.574;2022-11-30T06:57:11;66.20;;;28.07;;
1416;SDS011;703;51.162;13.574;2022-11-30T06:59:37;64.60;;;27.20;;
1416;SDS011;703;51.162;13.574;2022-11-30T07:02:15;66.00;;;28.67;;
1416;SDS011;703;51.162;13.574;2022-11-30T07:04:41;70.67;;;31.43;;
1416;SDS011;703;51.162;13.574;2022-11-30T07:07:06;65.17;;;30.27;;
1416;SDS011;703;51.162;13.574;2022-11-30T07:09:35;73.90;;;33.00;;
1416;SDS011;703;51.162;13.574;2022-11-30T07:12:01;68.00;;;30.40;;
1416;SDS011;703;51.162;13.574;2022-11-30T07:14:27;70.57;;;30.53;;
1416;SDS011;703;51.162;13.574;2022-11-30T07:16:54;65.67;;;29.10;;
1416;SDS011;703;51.162;13.574;2022-11-30T07:19:20;71.33;;;33.47;;
1416;SDS011;703;51.162;13.574;2022-11-30T07:21:45;72.97;;;33.67;;
1416;SDS011;703;51.162;13.574;2022-11-30T07:24:11;76.40;;;36.50;;
1416;SDS011;703;51.162;13.574;2022-11-30T07:26:57;70.67;;;31.97;;
1416;SDS011;703;51.162;13.574;2022-11-30T07:29:24;90.37;;;44.13;;
1416;SDS011;703;51.162;13.574;2022-11-30T07:31:50;86.30;;;41.30;;
1416;SDS011;703;51.162;13.574;2022-11-30T07:34:16;94.73;;;44.73;;
1416;SDS011;703;51.162;13.574;2022-11-30T07:36:42;83.20;;;39.93;;
1416;SDS011;703;51.162;13.574;2022-11-30T07:39:08;82.20;;;39.43;;
1416;SDS011;703;51.162;13.574;2022-11-30T07:41:34;77.37;;;33.87;;
1416;SDS011;703;51.162;13.574;2022-11-30T07:44:00;77.03;;;34.47;;
1416;SDS011;703;51.162;13.574;2022-11-30T07:46:28;73.03;;;32.60;;
1416;SDS011;703;51.162;13.574;2022-11-30T07:48:53;71.17;;;33.00;;
1416;SDS011;703;51.162;13.574;2022-11-30T07:51:20;67.93;;;32.27;;
1416;SDS011;703;51.162;13.574;2022-11-30T07:53:46;66.20;;;30.40;;
1416;SDS011;703;51.162;13.574;2022-11-30T07:56:14;66.63;;;29.73;;
1416;SDS011;703;51.162;13.574;2022-11-30T07:58:41;65.07;;;28.60;;
1416;SDS011;703;51.162;13.574;2022-11-30T08:01:11;66.80;;;28.33;;
1416;SDS011;703;51.162;13.574;2022-11-30T08:03:39;65.37;;;28.27;;
1416;SDS011;703;51.162;13.574;2022-11-30T08:06:06;66.87;;;28.33;;
1416;SDS011;703;51.162;13.574;2022-11-30T08:08:34;66.47;;;28.57;;
1416;SDS011;703;51.162;13.574;2022-11-30T08:11:06;63.03;;;28.30;;
1416;SDS011;703;51.162;13.574;2022-11-30T08:13:32;62.63;;;28.40;;
1416;SDS011;703;51.162;13.574;2022-11-30T08:16:02;63.87;;;28.30;;
1416;SDS011;703;51.162;13.574;2022-11-30T08:18:29;62.70;;;24.97;;
1416;SDS011;703;51.162;13.574;2022-11-30T08:20:59;63.50;;;28.10;;
1416;SDS011;703;51.162;13.574;2022-11-30T08:23:27;63.87;;;26.60;;
1416;SDS011;703;51.162;13.574;2022-11-30T08:26:08;64.70;;;27.30;;
1416;SDS011;703;51.162;13.574;2022-11-30T08:28:39;62.73;;;26.80;;
1416;SDS011;703;51.162;13.574;2022-11-30T08:31:07;59.30;;;23.00;;
1416;SDS011;703;51.162;13.574;2022-11-30T08:33:35;60.17;;;24.30;;
1416;SDS011;703;51.162;13.574;2022-11-30T08:36:05;59.50;;;26.00;;
1416;SDS011;703;51.162;13.574;2022-11-30T08:38:31;59.10;;;25.27;;
1416;SDS011;703;51.162;13.574;2022-11-30T08:40:57;61.57;;;27.00;;
1416;SDS011;703;51.162;13.574;2022-11-30T08:43:22;59.27;;;25.30;;
1416;SDS011;703;51.162;13.574;2022-11-30T08:45:48;58.00;;;25.67;;
1416;SDS011;703;51.162;13.574;2022-11-30T08:48:14;58.80;;;24.63;;
1416;SDS011;703;51.162;13.574;2022-11-30T08:50:39;56.07;;;23.40;;
1416;SDS011;703;51.162;13.574;2022-11-30T08:53:05;57.63;;;23.20;;
1416;SDS011;703;51.162;13.574;2022-11-30T08:55:30;56.80;;;22.67;;
1416;SDS011;703;51.162;13.574;2022-11-30T08:57:56;62.13;;;27.37;;
1416;SDS011;703;51.162;13.574;2022-11-30T09:00:22;57.60;;;25.37;;
1416;SDS011;703;51.162;13.574;2022-11-30T09:02:48;55.73;;;21.93;;
1416;SDS011;703;51.162;13.574;2022-11-30T09:05:14;58.00;;;23.93;;
1416;SDS011;703;51.162;13.574;2022-11-30T09:07:40;59.30;;;26.17;;
1416;SDS011;703;51.162;13.574;2022-11-30T09:10:05;58.10;;;25.43;;
1416;SDS011;703;51.162;13.574;2022-11-30T09:12:38;58.40;;;25.27;;
1416;SDS011;703;51.162;13.574;2022-11-30T09:15:05;59.23;;;25.10;;
1416;SDS011;703;51.162;13.574;2022-11-30T09:17:32;58.70;;;22.90;;
1416;SDS011;703;51.162;13.574;2022-11-30T09:19:59;56.80;;;23.93;;
1416;SDS011;703;51.162;13.574;2022-11-30T09:22:25;57.47;;;25.70;;
1416;SDS011;703;51.162;13.574;2022-11-30T09:24:52;57.03;;;23.47;;
1416;SDS011;703;51.162;13.574;2022-11-30T09:27:18;58.80;;;26.73;;
1416;SDS011;703;51.162;13.574;2022-11-30T09:29:44;58.77;;;26.53;;
1416;SDS011;703;51.162;13.574;2022-11-30T09:32:09;57.80;;;25.73;;
1416;SDS011;703;51.162;13.574;2022-11-30T09:34:35;56.30;;;23.90;;
1416;SDS011;703;51.162;13.574;2022-11-30T09:37:01;58.27;;;25.07;;
1416;SDS011;703;51.162;13.574;2022-11-30T09:39:26;57.30;;;22.17;;
1416;SDS011;703;51.162;13.574;2022-11-30T09:50:17;58.30;;;25.60;;
1416;SDS011;703;51.162;13.574;2022-11-30T09:52:56;58.30;;;23.70;;
1416;SDS011;703;51.162;13.574;2022-11-30T09:55:27;56.13;;;23.27;;
1416;SDS011;703;51.162;13.574;2022-11-30T09:58:00;58.07;;;25.77;;
1416;SDS011;703;51.162;13.574;2022-11-30T10:00:28;56.63;;;23.47;;
1416;SDS011;703;51.162;13.574;2022-11-30T10:02:55;56.87;;;25.00;;
1416;SDS011;703;51.162;13.574;2022-11-30T10:07:57;60.03;;;25.77;;
1416;SDS011;703;51.162;13.574;2022-11-30T10:22:14;58.27;;;25.43;;
1416;SDS011;703;51.162;13.574;2022-11-30T10:24:50;56.80;;;24.90;;
1416;SDS011;703;51.162;13.574;2022-11-30T10:27:47;55.80;;;22.93;;
1416;SDS011;703;51.162;13.574;2022-11-30T10:30:22;56.20;;;22.30;;
1416;SDS011;703;51.162;13.574;2022-11-30T10:32:53;57.57;;;25.03;;
1416;SDS011;703;51.162;13.574;2022-11-30T10:37:55;54.20;;;22.10;;
1416;SDS011;703;51.162;13.574;2022-11-30T10:43:07;56.67;;;23.53;;
1416;SDS011;703;51.162;13.574;2022-11-30T10:45:46;60.50;;;23.87;;
1416;SDS011;703;51.162;13.574;2022-11-30T10:50:48;57.73;;;21.97;;
1416;SDS011;703;51.162;13.574;2022-11-30T10:53:14;55.00;;;22.27;;
1416;SDS011;703;51.162;13.574;2022-11-30T10:55:41;56.20;;;21.87;;
1416;SDS011;703;51.162;13.574;2022-11-30T10:58:19;54.20;;;22.90;;
1416;SDS011;703;51.162;13.574;2022-11-30T11:00:57;56.57;;;22.77;;
1416;SDS011;703;51.162;13.574;2022-11-30T11:03:27;56.70;;;23.77;;
1416;SDS011;703;51.162;13.574;2022-11-30T11:08:43;55.27;;;22.10;;
1416;SDS011;703;51.162;13.574;2022-11-30T11:14:33;53.43;;;22.60;;
1416;SDS011;703;51.162;13.574;2022-11-30T11:17:19;57.27;;;23.70;;
1416;SDS011;703;51.162;13.574;2022-11-30T11:19:49;56.73;;;24.57;;
1416;SDS011;703;51.162;13.574;2022-11-30T11:24:50;56.87;;;24.47;;
1416;SDS011;703;51.162;13.574;2022-11-30T11:27:23;56.53;;;22.60;;
1416;SDS011;703;51.162;13.574;2022-11-30T11:29:57;56.80;;;24.27;;
1416;SDS011;703;51.162;13.574;2022-11-30T11:32:26;57.00;;;25.40;;
1416;SDS011;703;51.162;13.574;2022-11-30T11:34:54;53.80;;;21.47;;
1416;SDS011;703;51.162;13.574;2022-11-30T11:42:30;53.27;;;23.60;;
1416;SDS011;703;51.162;13.574;2022-11-30T11:45:02;56.17;;;25.20;;
1416;SDS011;703;51.162;13.574;2022-11-30T11:50:23;52.30;;;23.17;;
1416;SDS011;703;51.162;13.574;2022-11-30T11:55:57;51.93;;;18.90;;
1416;SDS011;703;51.162;13.574;2022-11-30T12:04:03;52.30;;;21.10;;
1416;SDS011;703;51.162;13.574;2022-11-30T12:06:31;52.47;;;20.47;;
1416;SDS011;703;51.162;13.574;2022-11-30T12:09:17;51.93;;;20.30;;
1416;SDS011;703;51.162;13.574;2022-11-30T12:11:53;53.63;;;20.77;;
1416;SDS011;703;51.162;13.574;2022-11-30T12:14:19;53.40;;;21.73;;
1416;SDS011;703;51.162;13.574;2022-11-30T12:17:32;53.00;;;21.37;;
1416;SDS011;703;51.162;13.574;2022-11-30T12:25:26;53.17;;;21.63;;
1416;SDS011;703;51.162;13.574;2022-11-30T12:35:42;54.70;;;21.27;;
1416;SDS011;703;51.162;13.574;2022-11-30T12:46:06;54.17;;;23.27;;
1416;SDS011;703;51.162;13.574;2022-11-30T12:51:19;54.40;;;22.10;;
1416;SDS011;703;51.162;13.574;2022-11-30T13:02:36;52.80;;;19.60;;
1416;SDS011;703;51.162;13.574;2022-11-30T13:05:35;53.47;;;21.77;;
1416;SDS011;703;51.162;13.574;2022-11-30T13:10:59;52.70;;;21.97;;
1416;SDS011;703;51.162;13.574;2022-11-30T13:13:46;54.17;;;23.17;;
1416;SDS011;703;51.162;13.574;2022-11-30T13:16:19;55.63;;;24.07;;
1416;SDS011;703;51.162;13.574;2022-11-30T13:18:49;55.70;;;21.70;;
1416;SDS011;703;51.162;13.574;2022-11-30T13:21:21;53.07;;;22.00;;
1416;SDS011;703;51.162;13.574;2022-11-30T13:29:42;55.20;;;23.43;;
1416;SDS011;703;51.162;13.574;2022-11-30T13:32:24;52.57;;;21.30;;
1416;SDS011;703;51.162;13.574;2022-11-30T13:34:50;57.17;;;24.83;;
1416;SDS011;703;51.162;13.574;2022-11-30T13:47:50;57.53;;;23.57;;
1416;SDS011;703;51.162;13.574;2022-11-30T13:58:14;52.50;;;20.40;;
1416;SDS011;703;51.162;13.574;2022-11-30T14:08:52;57.43;;;24.07;;
1416;SDS011;703;51.162;13.574;2022-11-30T14:17:20;55.63;;;23.50;;
1416;SDS011;703;51.162;13.574;2022-11-30T14:19:50;54.43;;;22.30;;
1416;SDS011;703;51.162;13.574;2022-11-30T14:22:19;62.03;;;25.93;;
1416;SDS011;703;51.162;13.574;2022-11-30T14:24:46;57.70;;;24.37;;
1416;SDS011;703;51.162;13.574;2022-11-30T14:27:14;56.93;;;24.70;;
1416;SDS011;703;51.162;13.574;2022-11-30T14:29:42;55.93;;;24.13;;
1416;SDS011;703;51.162;13.574;2022-11-30T14:32:15;56.53;;;23.50;;
1416;SDS011;703;51.162;13.574;2022-11-30T14:35:11;55.07;;;22.63;;
1416;SDS011;703;51.162;13.574;2022-11-30T14:37:45;54.47;;;22.60;;
1416;SDS011;703;51.162;13.574;2022-11-30T14:40:19;54.20;;;21.83;;
1416;SDS011;703;51.162;13.574;2022-11-30T14:42:48;55.57;;;23.00;;
1416;SDS011;703;51.162;13.574;2022-11-30T14:45:19;54.00;;;21.97;;
1416;SDS011;703;51.162;13.574;2022-11-30T14:47:45;55.70;;;22.17;;
1416;SDS011;703;51.162;13.574;2022-11-30T14:50:21;54.00;;;21.00;;
1416;SDS011;703;51.162;13.574;2022-11-30T14:55:46;53.93;;;22.50;;
1416;SDS011;703;51.162;13.574;2022-11-30T14:58:47;55.07;;;22.27;;
1416;SDS011;703;51.162;13.574;2022-11-30T15:01:24;56.87;;;23.10;;
1416;SDS011;703;51.162;13.574;2022-11-30T15:03:53;55.77;;;21.47;;
1416;SDS011;703;51.162;13.574;2022-11-30T15:06:31;54.47;;;22.30;;
1416;SDS011;703;51.162;13.574;2022-11-30T15:08:58;55.07;;;23.67;;
1416;SDS011;703;51.162;13.574;2022-11-30T15:11:25;55.20;;;22.87;;
1416;SDS011;703;51.162;13.574;2022-11-30T15:13:53;57.97;;;23.83;;
1416;SDS011;703;51.162;13.574;2022-11-30T15:16:25;54.10;;;21.70;;
1416;SDS011;703;51.162;13.574;2022-11-30T15:18:53;59.57;;;27.40;;
1416;SDS011;703;51.162;13.574;2022-11-30T15:21:23;55.80;;;26.03;;
1416;SDS011;703;51.162;13.574;2022-11-30T15:23:56;55.87;;;25.23;;
1416;SDS011;703;51.162;13.574;2022-11-30T15:26:27;57.30;;;23.77;;
1416;SDS011;703;51.162;13.574;2022-11-30T15:28:56;56.60;;;24.53;;
1416;SDS011;703;51.162;13.574;2022-11-30T15:31:22;57.30;;;23.20;;
1416;SDS011;703;51.162;13.574;2022-11-30T15:33:49;58.10;;;24.90;;
1416;SDS011;703;51.162;13.574;2022-11-30T15:36:16;57.10;;;24.90;;
1416;SDS011;703;51.162;13.574;2022-11-30T15:38:48;54.47;;;22.77;;
1416;SDS011;703;51.162;13.574;2022-11-30T15:41:20;57.97;;;25.10;;
1416;SDS011;703;51.162;13.574;2022-11-30T15:43:50;59.70;;;24.43;;
1416;SDS011;703;51.162;13.574;2022-11-30T15:46:27;58.77;;;24.63;;
1416;SDS011;703;51.162;13.574;2022-11-30T15:54:47;59.87;;;28.07;;
1416;SDS011;703;51.162;13.574;2022-11-30T15:57:16;58.53;;;24.33;;
1416;SDS011;703;51.162;13.574;2022-11-30T15:59:43;58.83;;;24.60;;
1416;SDS011;703;51.162;13.574;2022-11-30T16:02:27;59.13;;;25.30;;
1416;SDS011;703;51.162;13.574;2022-11-30T16:07:32;58.60;;;24.97;;
1416;SDS011;703;51.162;13.574;2022-11-30T16:12:28;60.87;;;29.57;;
1416;SDS011;703;51.162;13.574;2022-11-30T16:14:54;62.03;;;28.80;;
1416;SDS011;703;51.162;13.574;2022-11-30T16:17:20;59.00;;;24.77;;
1416;SDS011;703;51.162;13.574;2022-11-30T16:19:46;60.73;;;25.70;;
1416;SDS011;703;51.162;13.574;2022-11-30T16:22:12;57.10;;;25.30;;
1416;SDS011;703;51.162;13.574;2022-11-30T16:24:40;58.80;;;25.57;;
1416;SDS011;703;51.162;13.574;2022-11-30T16:27:16;55.97;;;23.70;;
1416;SDS011;703;51.162;13.574;2022-11-30T16:29:47;58.90;;;25.33;;
1416;SDS011;703;51.162;13.574;2022-11-30T16:32:13;59.90;;;26.13;;
1416;SDS011;703;51.162;13.574;2022-11-30T16:34:39;58.90;;;25.30;;
1416;SDS011;703;51.162;13.574;2022-11-30T16:37:09;59.80;;;26.80;;
1416;SDS011;703;51.162;13.574;2022-11-30T16:39:37;58.70;;;25.40;;
1416;SDS011;703;51.162;13.574;2022-11-30T16:42:03;56.40;;;24.73;;
1416;SDS011;703;51.162;13.574;2022-11-30T16:44:28;57.20;;;24.10;;
1416;SDS011;703;51.162;13.574;2022-11-30T16:46:54;59.53;;;25.07;;
1416;SDS011;703;51.162;13.574;2022-11-30T16:49:19;60.43;;;24.63;;
1416;SDS011;703;51.162;13.574;2022-11-30T16:51:46;65.07;;;31.70;;
1416;SDS011;703;51.162;13.574;2022-11-30T16:54:12;61.30;;;29.30;;
1416;SDS011;703;51.162;13.574;2022-11-30T16:56:39;69.47;;;35.27;;
1416;SDS011;703;51.162;13.574;2022-11-30T16:59:06;67.60;;;31.50;;
1416;SDS011;703;51.162;13.574;2022-11-30T17:01:35;68.47;;;33.93;;
1416;SDS011;703;51.162;13.574;2022-11-30T17:04:11;70.10;;;33.70;;
1416;SDS011;703;51.162;13.574;2022-11-30T17:06:42;71.27;;;33.07;;
1416;SDS011;703;51.162;13.574;2022-11-30T17:09:12;66.90;;;31.30;;
1416;SDS011;703;51.162;13.574;2022-11-30T17:11:39;73.07;;;34.53;;
1416;SDS011;703;51.162;13.574;2022-11-30T17:14:05;67.40;;;31.67;;
1416;SDS011;703;51.162;13.574;2022-11-30T17:16:31;74.60;;;33.83;;
1416;SDS011;703;51.162;13.574;2022-11-30T17:18:57;70.57;;;35.77;;
1416;SDS011;703;51.162;13.574;2022-11-30T17:21:26;73.57;;;38.37;;
1416;SDS011;703;51.162;13.574;2022-11-30T17:23:54;76.23;;;37.83;;
1416;SDS011;703;51.162;13.574;2022-11-30T17:26:20;73.03;;;35.70;;
1416;SDS011;703;51.162;13.574;2022-11-30T17:28:45;78.50;;;36.73;;
1416;SDS011;703;51.162;13.574;2022-11-30T17:31:11;71.60;;;34.80;;
1416;SDS011;703;51.162;13.574;2022-11-30T17:33:38;73.77;;;37.50;;
1416;SDS011;703;51.162;13.574;2022-11-30T17:36:05;75.27;;;37.27;;
1416;SDS011;703;51.162;13.574;2022-11-30T17:38:33;77.00;;;38.53;;
1416;SDS011;703;51.162;13.574;2022-11-30T17:41:02;76.83;;;37.67;;